sensor_id;sensor_type;location;lat;lon;timestamp;P1;durP1;ratioP1;P2;durP2;ratioP2
9413;SDS011;4746;35.664;139.738;2023-07-31T00:00:46;2.47;;;2.13;;
9413;SDS011;4746;35.664;139.738;2023-07-31T00:03:13;2.65;;;2.45;;
9413;SDS011;4746;35.664;139.738;2023-07-31T00:05:41;4.43;;;2.25;;
9413;SDS011;4746;35.664;139.738;2023-07-31T00:08:09;3.05;;;1.95;;
9413;SDS011;4746;35.664;139.738;2023-07-31T00:10:37;2.20;;;1.80;;
9413;SDS011;4746;35.664;139.738;2023-07-31T00:13:04;2.97;;;1.60;;
9413;SDS011;4746;35.664;139.738;2023-07-31T00:15:32;3.10;;;2.17;;
9413;SDS011;4746;35.664;139.738;2023-07-31T00:17:59;2.13;;;1.90;;
9413;SDS011;4746;35.664;139.738;2023-07-31T00:20:26;4.30;;;2.15;;
9413;SDS011;4746;35.664;139.738;2023-07-31T00:22:54;8.15;;;2.50;;
9413;SDS011;4746;35.664;139.738;2023-07-31T00:25:23;2.53;;;2.08;;
9413;SDS011;4746;35.664;139.738;2023-07-31T00:27:50;3.95;;;2.00;;
9413;SDS011;4746;35.664;139.738;2023-07-31T00:30:18;5.93;;;2.42;;
9413;SDS011;4746;35.664;139.738;2023-07-31T00:32:45;4.38;;;2.10;;
9413;SDS011;4746;35.664;139.738;2023-07-31T00:35:13;1.80;;;1.70;;
9413;SDS011;4746;35.664;139.738;2023-07-31T00:37:40;5.10;;;1.83;;
9413;SDS011;4746;35.664;139.738;2023-07-31T00:40:08;4.75;;;1.50;;
9413;SDS011;4746;35.664;139.738;2023-07-31T00:42:36;3.50;;;1.75;;
9413;SDS011;4746;35.664;139.738;2023-07-31T00:45:03;2.63;;;1.83;;
9413;SDS011;4746;35.664;139.738;2023-07-31T00:47:31;3.55;;;2.00;;
9413;SDS011;4746;35.664;139.738;2023-07-31T00:49:59;4.47;;;2.20;;
9413;SDS011;4746;35.664;139.738;2023-07-31T00:52:27;4.85;;;2.75;;
9413;SDS011;4746;35.664;139.738;2023-07-31T00:54:54;8.98;;;2.90;;
9413;SDS011;4746;35.664;139.738;2023-07-31T00:57:22;7.82;;;3.08;;
9413;SDS011;4746;35.664;139.738;2023-07-31T00:59:50;11.82;;;3.67;;
9413;SDS011;4746;35.664;139.738;2023-07-31T01:02:17;10.02;;;3.33;;
9413;SDS011;4746;35.664;139.738;2023-07-31T01:04:46;8.85;;;3.28;;
9413;SDS011;4746;35.664;139.738;2023-07-31T01:07:17;5.82;;;3.08;;
9413;SDS011;4746;35.664;139.738;2023-07-31T01:10:07;6.93;;;3.15;;
9413;SDS011;4746;35.664;139.738;2023-07-31T01:12:46;10.00;;;3.05;;
9413;SDS011;4746;35.664;139.738;2023-07-31T01:15:17;12.63;;;3.63;;
9413;SDS011;4746;35.664;139.738;2023-07-31T01:17:45;6.25;;;2.97;;
9413;SDS011;4746;35.664;139.738;2023-07-31T01:20:22;8.10;;;3.28;;
9413;SDS011;4746;35.664;139.738;2023-07-31T01:26:11;7.93;;;3.42;;
9413;SDS011;4746;35.664;139.738;2023-07-31T01:28:55;8.13;;;3.33;;
9413;SDS011;4746;35.664;139.738;2023-07-31T01:31:41;3.35;;;2.33;;
9413;SDS011;4746;35.664;139.738;2023-07-31T01:34:14;7.68;;;2.70;;
9413;SDS011;4746;35.664;139.738;2023-07-31T01:36:44;4.90;;;2.65;;
9413;SDS011;4746;35.664;139.738;2023-07-31T01:39:12;3.55;;;2.42;;
9413;SDS011;4746;35.664;139.738;2023-07-31T01:41:42;4.05;;;2.00;;
9413;SDS011;4746;35.664;139.738;2023-07-31T01:44:09;3.72;;;2.30;;
9413;SDS011;4746;35.664;139.738;2023-07-31T01:46:37;4.07;;;2.10;;
9413;SDS011;4746;35.664;139.738;2023-07-31T01:49:05;3.78;;;2.00;;
9413;SDS011;4746;35.664;139.738;2023-07-31T01:51:34;3.40;;;2.13;;
9413;SDS011;4746;35.664;139.738;2023-07-31T01:54:02;4.53;;;2.00;;
9413;SDS011;4746;35.664;139.738;2023-07-31T01:56:29;6.63;;;2.60;;
9413;SDS011;4746;35.664;139.738;2023-07-31T01:58:57;4.03;;;1.77;;
9413;SDS011;4746;35.664;139.738;2023-07-31T02:01:24;3.22;;;2.28;;
9413;SDS011;4746;35.664;139.738;2023-07-31T02:03:52;5.25;;;2.30;;
9413;SDS011;4746;35.664;139.738;2023-07-31T02:06:19;5.13;;;2.38;;
9413;SDS011;4746;35.664;139.738;2023-07-31T02:08:48;4.90;;;2.10;;
9413;SDS011;4746;35.664;139.738;2023-07-31T02:11:15;2.42;;;1.42;;
9413;SDS011;4746;35.664;139.738;2023-07-31T02:13:43;5.50;;;2.33;;
9413;SDS011;4746;35.664;139.738;2023-07-31T02:16:10;3.30;;;1.38;;
9413;SDS011;4746;35.664;139.738;2023-07-31T02:18:38;2.47;;;1.73;;
9413;SDS011;4746;35.664;139.738;2023-07-31T02:21:12;3.70;;;1.90;;
9413;SDS011;4746;35.664;139.738;2023-07-31T02:24:25;6.72;;;1.95;;
9413;SDS011;4746;35.664;139.738;2023-07-31T02:26:52;6.85;;;2.58;;
9413;SDS011;4746;35.664;139.738;2023-07-31T02:29:20;6.72;;;1.80;;
9413;SDS011;4746;35.664;139.738;2023-07-31T02:31:47;2.60;;;1.50;;
9413;SDS011;4746;35.664;139.738;2023-07-31T02:34:15;5.15;;;2.13;;
9413;SDS011;4746;35.664;139.738;2023-07-31T02:36:42;2.10;;;1.90;;
9413;SDS011;4746;35.664;139.738;2023-07-31T02:39:10;4.75;;;2.33;;
9413;SDS011;4746;35.664;139.738;2023-07-31T02:41:37;7.38;;;2.28;;
9413;SDS011;4746;35.664;139.738;2023-07-31T02:44:05;8.23;;;3.00;;
9413;SDS011;4746;35.664;139.738;2023-07-31T02:46:32;3.05;;;2.08;;
9413;SDS011;4746;35.664;139.738;2023-07-31T02:49:00;4.20;;;1.67;;
9413;SDS011;4746;35.664;139.738;2023-07-31T02:51:28;5.78;;;2.25;;
9413;SDS011;4746;35.664;139.738;2023-07-31T02:53:55;4.32;;;1.80;;
9413;SDS011;4746;35.664;139.738;2023-07-31T02:56:22;4.40;;;2.10;;
9413;SDS011;4746;35.664;139.738;2023-07-31T02:58:50;6.05;;;1.80;;
9413;SDS011;4746;35.664;139.738;2023-07-31T03:01:17;2.95;;;1.75;;
9413;SDS011;4746;35.664;139.738;2023-07-31T03:03:45;3.40;;;2.30;;
9413;SDS011;4746;35.664;139.738;2023-07-31T03:06:12;3.00;;;1.80;;
9413;SDS011;4746;35.664;139.738;2023-07-31T03:08:43;3.28;;;2.20;;
9413;SDS011;4746;35.664;139.738;2023-07-31T03:11:11;6.40;;;2.15;;
9413;SDS011;4746;35.664;139.738;2023-07-31T03:13:38;4.25;;;2.45;;
9413;SDS011;4746;35.664;139.738;2023-07-31T03:16:06;2.30;;;1.77;;
9413;SDS011;4746;35.664;139.738;2023-07-31T03:18:33;3.50;;;1.65;;
9413;SDS011;4746;35.664;139.738;2023-07-31T03:21:01;4.10;;;1.50;;
9413;SDS011;4746;35.664;139.738;2023-07-31T03:23:28;4.35;;;1.75;;
9413;SDS011;4746;35.664;139.738;2023-07-31T03:26:02;4.10;;;1.73;;
9413;SDS011;4746;35.664;139.738;2023-07-31T03:28:33;1.73;;;1.33;;
9413;SDS011;4746;35.664;139.738;2023-07-31T03:31:01;3.00;;;1.70;;
9413;SDS011;4746;35.664;139.738;2023-07-31T03:33:40;4.30;;;1.90;;
9413;SDS011;4746;35.664;139.738;2023-07-31T03:36:08;2.85;;;1.60;;
9413;SDS011;4746;35.664;139.738;2023-07-31T03:38:35;1.92;;;1.50;;
9413;SDS011;4746;35.664;139.738;2023-07-31T03:41:03;5.85;;;1.92;;
9413;SDS011;4746;35.664;139.738;2023-07-31T03:43:32;3.38;;;1.35;;
9413;SDS011;4746;35.664;139.738;2023-07-31T03:46:00;6.88;;;1.85;;
9413;SDS011;4746;35.664;139.738;2023-07-31T03:48:28;4.00;;;2.13;;
9413;SDS011;4746;35.664;139.738;2023-07-31T03:50:55;4.07;;;1.60;;
9413;SDS011;4746;35.664;139.738;2023-07-31T03:53:24;2.72;;;1.38;;
9413;SDS011;4746;35.664;139.738;2023-07-31T03:55:51;3.63;;;1.33;;
9413;SDS011;4746;35.664;139.738;2023-07-31T03:58:19;2.65;;;1.30;;
9413;SDS011;4746;35.664;139.738;2023-07-31T04:00:46;4.20;;;1.35;;
9413;SDS011;4746;35.664;139.738;2023-07-31T04:03:14;2.78;;;0.80;;
9413;SDS011;4746;35.664;139.738;2023-07-31T04:05:41;1.90;;;1.00;;
9413;SDS011;4746;35.664;139.738;2023-07-31T04:08:09;2.67;;;1.17;;
9413;SDS011;4746;35.664;139.738;2023-07-31T04:10:36;2.33;;;1.20;;
9413;SDS011;4746;35.664;139.738;2023-07-31T04:13:04;5.25;;;1.17;;
9413;SDS011;4746;35.664;139.738;2023-07-31T04:15:33;4.43;;;1.20;;
9413;SDS011;4746;35.664;139.738;2023-07-31T04:18:00;1.63;;;0.88;;
9413;SDS011;4746;35.664;139.738;2023-07-31T04:20:28;2.25;;;1.20;;
9413;SDS011;4746;35.664;139.738;2023-07-31T04:22:55;2.58;;;1.05;;
9413;SDS011;4746;35.664;139.738;2023-07-31T04:25:23;3.25;;;1.15;;
9413;SDS011;4746;35.664;139.738;2023-07-31T04:27:50;4.13;;;1.10;;
9413;SDS011;4746;35.664;139.738;2023-07-31T04:30:18;2.85;;;1.05;;
9413;SDS011;4746;35.664;139.738;2023-07-31T04:32:45;2.92;;;1.20;;
9413;SDS011;4746;35.664;139.738;2023-07-31T04:35:13;3.83;;;1.45;;
9413;SDS011;4746;35.664;139.738;2023-07-31T04:37:40;2.70;;;1.20;;
9413;SDS011;4746;35.664;139.738;2023-07-31T04:40:08;3.80;;;1.10;;
9413;SDS011;4746;35.664;139.738;2023-07-31T04:42:36;3.30;;;1.05;;
9413;SDS011;4746;35.664;139.738;2023-07-31T04:45:03;5.00;;;1.30;;
9413;SDS011;4746;35.664;139.738;2023-07-31T04:47:31;3.15;;;1.20;;
9413;SDS011;4746;35.664;139.738;2023-07-31T04:49:59;5.28;;;1.30;;
9413;SDS011;4746;35.664;139.738;2023-07-31T04:52:26;4.22;;;0.90;;
9413;SDS011;4746;35.664;139.738;2023-07-31T04:54:54;2.03;;;1.20;;
9413;SDS011;4746;35.664;139.738;2023-07-31T04:57:21;1.45;;;0.85;;
9413;SDS011;4746;35.664;139.738;2023-07-31T04:59:49;3.90;;;1.00;;
9413;SDS011;4746;35.664;139.738;2023-07-31T05:02:16;3.40;;;1.25;;
9413;SDS011;4746;35.664;139.738;2023-07-31T05:04:44;4.38;;;0.98;;
9413;SDS011;4746;35.664;139.738;2023-07-31T05:07:11;3.35;;;0.95;;
9413;SDS011;4746;35.664;139.738;2023-07-31T05:09:39;4.30;;;0.95;;
9413;SDS011;4746;35.664;139.738;2023-07-31T05:12:06;2.53;;;1.00;;
9413;SDS011;4746;35.664;139.738;2023-07-31T05:14:34;7.18;;;1.45;;
9413;SDS011;4746;35.664;139.738;2023-07-31T05:17:02;3.30;;;1.30;;
9413;SDS011;4746;35.664;139.738;2023-07-31T05:19:29;4.65;;;1.13;;
9413;SDS011;4746;35.664;139.738;2023-07-31T05:21:57;3.05;;;1.17;;
9413;SDS011;4746;35.664;139.738;2023-07-31T05:24:24;5.28;;;2.00;;
9413;SDS011;4746;35.664;139.738;2023-07-31T05:26:52;7.68;;;2.10;;
9413;SDS011;4746;35.664;139.738;2023-07-31T05:29:20;7.90;;;2.15;;
9413;SDS011;4746;35.664;139.738;2023-07-31T05:31:47;8.35;;;2.20;;
9413;SDS011;4746;35.664;139.738;2023-07-31T05:34:15;4.22;;;1.70;;
9413;SDS011;4746;35.664;139.738;2023-07-31T05:36:42;5.53;;;1.90;;
9413;SDS011;4746;35.664;139.738;2023-07-31T05:39:10;6.07;;;1.75;;
9413;SDS011;4746;35.664;139.738;2023-07-31T05:41:37;8.35;;;1.80;;
9413;SDS011;4746;35.664;139.738;2023-07-31T05:44:05;6.22;;;1.63;;
9413;SDS011;4746;35.664;139.738;2023-07-31T05:46:32;3.40;;;1.15;;
9413;SDS011;4746;35.664;139.738;2023-07-31T05:49:00;3.08;;;1.13;;
9413;SDS011;4746;35.664;139.738;2023-07-31T05:51:28;4.22;;;1.15;;
9413;SDS011;4746;35.664;139.738;2023-07-31T05:53:55;3.83;;;1.30;;
9413;SDS011;4746;35.664;139.738;2023-07-31T05:56:23;5.95;;;1.05;;
9413;SDS011;4746;35.664;139.738;2023-07-31T05:58:52;3.67;;;1.45;;
9413;SDS011;4746;35.664;139.738;2023-07-31T06:01:20;4.20;;;1.45;;
9413;SDS011;4746;35.664;139.738;2023-07-31T06:03:47;3.20;;;1.35;;
9413;SDS011;4746;35.664;139.738;2023-07-31T06:06:14;3.25;;;1.20;;
9413;SDS011;4746;35.664;139.738;2023-07-31T06:08:42;2.75;;;0.98;;
9413;SDS011;4746;35.664;139.738;2023-07-31T06:11:11;4.40;;;1.10;;
9413;SDS011;4746;35.664;139.738;2023-07-31T06:13:39;3.38;;;1.00;;
9413;SDS011;4746;35.664;139.738;2023-07-31T06:16:06;1.88;;;0.80;;
9413;SDS011;4746;35.664;139.738;2023-07-31T06:18:34;4.00;;;1.25;;
9413;SDS011;4746;35.664;139.738;2023-07-31T06:21:01;3.78;;;1.20;;
9413;SDS011;4746;35.664;139.738;2023-07-31T06:23:29;2.47;;;1.17;;
9413;SDS011;4746;35.664;139.738;2023-07-31T06:25:56;3.88;;;1.48;;
9413;SDS011;4746;35.664;139.738;2023-07-31T06:28:28;5.18;;;1.35;;
9413;SDS011;4746;35.664;139.738;2023-07-31T06:30:57;6.28;;;1.50;;
9413;SDS011;4746;35.664;139.738;2023-07-31T06:33:26;3.80;;;1.30;;
9413;SDS011;4746;35.664;139.738;2023-07-31T06:35:54;3.08;;;1.20;;
9413;SDS011;4746;35.664;139.738;2023-07-31T06:38:22;5.25;;;1.40;;
9413;SDS011;4746;35.664;139.738;2023-07-31T06:40:51;5.60;;;1.25;;
9413;SDS011;4746;35.664;139.738;2023-07-31T06:43:19;5.82;;;1.42;;
9413;SDS011;4746;35.664;139.738;2023-07-31T06:45:47;5.25;;;1.63;;
9413;SDS011;4746;35.664;139.738;2023-07-31T06:48:16;3.28;;;1.40;;
9413;SDS011;4746;35.664;139.738;2023-07-31T06:50:44;5.05;;;2.28;;
9413;SDS011;4746;35.664;139.738;2023-07-31T06:53:11;5.25;;;2.15;;
9413;SDS011;4746;35.664;139.738;2023-07-31T06:55:39;6.68;;;1.60;;
9413;SDS011;4746;35.664;139.738;2023-07-31T06:58:06;6.70;;;2.20;;
9413;SDS011;4746;35.664;139.738;2023-07-31T07:00:34;5.03;;;1.67;;
9413;SDS011;4746;35.664;139.738;2023-07-31T07:03:01;5.70;;;2.38;;
9413;SDS011;4746;35.664;139.738;2023-07-31T07:05:29;7.57;;;2.35;;
9413;SDS011;4746;35.664;139.738;2023-07-31T07:07:56;6.90;;;2.10;;
9413;SDS011;4746;35.664;139.738;2023-07-31T07:10:24;7.97;;;2.33;;
9413;SDS011;4746;35.664;139.738;2023-07-31T07:12:52;6.45;;;2.05;;
9413;SDS011;4746;35.664;139.738;2023-07-31T07:15:21;9.55;;;2.33;;
9413;SDS011;4746;35.664;139.738;2023-07-31T07:17:48;9.63;;;2.67;;
9413;SDS011;4746;35.664;139.738;2023-07-31T07:20:16;6.60;;;2.33;;
9413;SDS011;4746;35.664;139.738;2023-07-31T07:22:45;5.88;;;2.30;;
9413;SDS011;4746;35.664;139.738;2023-07-31T07:25:13;7.47;;;2.20;;
9413;SDS011;4746;35.664;139.738;2023-07-31T07:27:40;7.75;;;1.90;;
9413;SDS011;4746;35.664;139.738;2023-07-31T07:30:08;5.28;;;2.08;;
9413;SDS011;4746;35.664;139.738;2023-07-31T07:32:35;4.20;;;1.60;;
9413;SDS011;4746;35.664;139.738;2023-07-31T07:35:03;3.33;;;1.30;;
9413;SDS011;4746;35.664;139.738;2023-07-31T07:37:31;3.45;;;1.42;;
9413;SDS011;4746;35.664;139.738;2023-07-31T07:39:59;5.85;;;1.52;;
9413;SDS011;4746;35.664;139.738;2023-07-31T07:42:26;4.90;;;2.08;;
9413;SDS011;4746;35.664;139.738;2023-07-31T07:44:54;7.22;;;2.13;;
9413;SDS011;4746;35.664;139.738;2023-07-31T07:47:22;3.28;;;1.73;;
9413;SDS011;4746;35.664;139.738;2023-07-31T07:49:50;3.70;;;1.50;;
9413;SDS011;4746;35.664;139.738;2023-07-31T07:52:17;4.50;;;1.63;;
9413;SDS011;4746;35.664;139.738;2023-07-31T07:54:45;2.92;;;1.65;;
9413;SDS011;4746;35.664;139.738;2023-07-31T07:57:12;3.92;;;1.95;;
9413;SDS011;4746;35.664;139.738;2023-07-31T07:59:40;6.32;;;1.60;;
9413;SDS011;4746;35.664;139.738;2023-07-31T08:02:08;4.68;;;1.65;;
9413;SDS011;4746;35.664;139.738;2023-07-31T08:04:35;4.43;;;1.75;;
9413;SDS011;4746;35.664;139.738;2023-07-31T08:07:03;3.15;;;1.40;;
9413;SDS011;4746;35.664;139.738;2023-07-31T08:09:31;3.55;;;1.55;;
9413;SDS011;4746;35.664;139.738;2023-07-31T08:11:58;8.00;;;1.63;;
9413;SDS011;4746;35.664;139.738;2023-07-31T08:14:28;3.28;;;1.05;;
9413;SDS011;4746;35.664;139.738;2023-07-31T08:16:56;2.95;;;1.50;;
9413;SDS011;4746;35.664;139.738;2023-07-31T08:19:23;4.28;;;1.27;;
9413;SDS011;4746;35.664;139.738;2023-07-31T08:21:51;2.42;;;1.15;;
9413;SDS011;4746;35.664;139.738;2023-07-31T08:24:18;2.22;;;1.10;;
9413;SDS011;4746;35.664;139.738;2023-07-31T08:26:46;4.60;;;1.50;;
9413;SDS011;4746;35.664;139.738;2023-07-31T08:29:14;2.95;;;1.27;;
9413;SDS011;4746;35.664;139.738;2023-07-31T08:31:41;3.70;;;1.27;;
9413;SDS011;4746;35.664;139.738;2023-07-31T08:34:09;4.28;;;1.40;;
9413;SDS011;4746;35.664;139.738;2023-07-31T08:36:36;3.75;;;1.27;;
9413;SDS011;4746;35.664;139.738;2023-07-31T08:39:04;3.80;;;1.23;;
9413;SDS011;4746;35.664;139.738;2023-07-31T08:41:31;4.78;;;1.30;;
9413;SDS011;4746;35.664;139.738;2023-07-31T08:44:05;4.60;;;1.08;;
9413;SDS011;4746;35.664;139.738;2023-07-31T08:46:37;3.63;;;1.60;;
9413;SDS011;4746;35.664;139.738;2023-07-31T08:49:06;5.53;;;1.85;;
9413;SDS011;4746;35.664;139.738;2023-07-31T08:51:36;5.60;;;1.63;;
9413;SDS011;4746;35.664;139.738;2023-07-31T08:54:06;3.35;;;1.25;;
9413;SDS011;4746;35.664;139.738;2023-07-31T08:56:33;4.93;;;1.48;;
9413;SDS011;4746;35.664;139.738;2023-07-31T08:59:02;3.30;;;1.65;;
9413;SDS011;4746;35.664;139.738;2023-07-31T09:01:31;5.05;;;1.50;;
9413;SDS011;4746;35.664;139.738;2023-07-31T09:04:09;3.42;;;1.45;;
9413;SDS011;4746;35.664;139.738;2023-07-31T09:06:40;3.85;;;1.25;;
9413;SDS011;4746;35.664;139.738;2023-07-31T09:09:09;3.10;;;1.40;;
9413;SDS011;4746;35.664;139.738;2023-07-31T09:11:38;2.45;;;0.88;;
9413;SDS011;4746;35.664;139.738;2023-07-31T09:14:07;5.00;;;1.38;;
9413;SDS011;4746;35.664;139.738;2023-07-31T09:16:50;3.33;;;1.20;;
9413;SDS011;4746;35.664;139.738;2023-07-31T09:19:32;3.58;;;0.98;;
9413;SDS011;4746;35.664;139.738;2023-07-31T09:22:07;4.07;;;1.05;;
9413;SDS011;4746;35.664;139.738;2023-07-31T09:24:35;2.80;;;1.15;;
9413;SDS011;4746;35.664;139.738;2023-07-31T09:27:02;3.35;;;1.58;;
9413;SDS011;4746;35.664;139.738;2023-07-31T09:29:31;2.40;;;1.00;;
9413;SDS011;4746;35.664;139.738;2023-07-31T09:31:59;5.38;;;1.55;;
9413;SDS011;4746;35.664;139.738;2023-07-31T09:34:30;3.90;;;1.60;;
9413;SDS011;4746;35.664;139.738;2023-07-31T09:37:04;5.28;;;1.63;;
9413;SDS011;4746;35.664;139.738;2023-07-31T09:39:32;2.78;;;0.98;;
9413;SDS011;4746;35.664;139.738;2023-07-31T09:42:26;3.95;;;0.95;;
9413;SDS011;4746;35.664;139.738;2023-07-31T09:44:56;2.78;;;1.02;;
9413;SDS011;4746;35.664;139.738;2023-07-31T09:47:35;3.00;;;1.10;;
9413;SDS011;4746;35.664;139.738;2023-07-31T09:50:06;3.15;;;1.30;;
9413;SDS011;4746;35.664;139.738;2023-07-31T09:52:34;5.53;;;1.20;;
9413;SDS011;4746;35.664;139.738;2023-07-31T09:55:05;3.63;;;1.15;;
9413;SDS011;4746;35.664;139.738;2023-07-31T09:57:34;4.30;;;1.73;;
9413;SDS011;4746;35.664;139.738;2023-07-31T10:00:22;3.47;;;1.40;;
9413;SDS011;4746;35.664;139.738;2023-07-31T10:02:53;2.17;;;1.05;;
9413;SDS011;4746;35.664;139.738;2023-07-31T10:05:49;4.63;;;1.42;;
9413;SDS011;4746;35.664;139.738;2023-07-31T10:08:19;3.17;;;1.20;;
9413;SDS011;4746;35.664;139.738;2023-07-31T10:11:00;4.82;;;1.42;;
9413;SDS011;4746;35.664;139.738;2023-07-31T10:13:29;2.83;;;1.40;;
9413;SDS011;4746;35.664;139.738;2023-07-31T10:15:59;2.85;;;1.08;;
9413;SDS011;4746;35.664;139.738;2023-07-31T10:18:30;5.10;;;1.60;;
9413;SDS011;4746;35.664;139.738;2023-07-31T10:20:58;2.88;;;1.10;;
9413;SDS011;4746;35.664;139.738;2023-07-31T10:23:26;2.60;;;0.90;;
9413;SDS011;4746;35.664;139.738;2023-07-31T10:25:55;3.05;;;1.30;;
9413;SDS011;4746;35.664;139.738;2023-07-31T10:28:27;2.58;;;0.98;;
9413;SDS011;4746;35.664;139.738;2023-07-31T10:30:58;3.97;;;1.42;;
9413;SDS011;4746;35.664;139.738;2023-07-31T10:33:29;1.95;;;1.00;;
9413;SDS011;4746;35.664;139.738;2023-07-31T10:36:13;4.60;;;1.02;;
9413;SDS011;4746;35.664;139.738;2023-07-31T10:38:45;2.92;;;1.10;;
9413;SDS011;4746;35.664;139.738;2023-07-31T10:41:16;3.90;;;1.40;;
9413;SDS011;4746;35.664;139.738;2023-07-31T10:43:45;2.83;;;1.08;;
9413;SDS011;4746;35.664;139.738;2023-07-31T10:46:13;2.58;;;1.27;;
9413;SDS011;4746;35.664;139.738;2023-07-31T10:48:41;3.38;;;1.17;;
9413;SDS011;4746;35.664;139.738;2023-07-31T10:51:09;2.88;;;1.30;;
9413;SDS011;4746;35.664;139.738;2023-07-31T10:53:39;2.13;;;1.17;;
9413;SDS011;4746;35.664;139.738;2023-07-31T10:56:08;4.47;;;1.30;;
9413;SDS011;4746;35.664;139.738;2023-07-31T10:58:44;4.63;;;1.70;;
9413;SDS011;4746;35.664;139.738;2023-07-31T11:01:11;3.65;;;1.80;;
9413;SDS011;4746;35.664;139.738;2023-07-31T11:03:49;3.05;;;1.27;;
9413;SDS011;4746;35.664;139.738;2023-07-31T11:06:18;2.53;;;1.30;;
9413;SDS011;4746;35.664;139.738;2023-07-31T11:08:46;4.78;;;2.50;;
9413;SDS011;4746;35.664;139.738;2023-07-31T11:11:17;7.45;;;6.05;;
9413;SDS011;4746;35.664;139.738;2023-07-31T11:13:47;13.30;;;12.00;;
9413;SDS011;4746;35.664;139.738;2023-07-31T11:16:20;16.60;;;15.05;;
9413;SDS011;4746;35.664;139.738;2023-07-31T11:18:50;9.25;;;7.55;;
9413;SDS011;4746;35.664;139.738;2023-07-31T11:21:20;16.67;;;15.18;;
9413;SDS011;4746;35.664;139.738;2023-07-31T11:23:51;10.57;;;9.40;;
9413;SDS011;4746;35.664;139.738;2023-07-31T11:26:23;16.10;;;14.48;;
9413;SDS011;4746;35.664;139.738;2023-07-31T11:28:51;27.92;;;25.42;;
9413;SDS011;4746;35.664;139.738;2023-07-31T11:31:19;55.80;;;51.08;;
9413;SDS011;4746;35.664;139.738;2023-07-31T11:33:46;55.85;;;51.25;;
9413;SDS011;4746;35.664;139.738;2023-07-31T11:36:17;42.20;;;38.78;;
9413;SDS011;4746;35.664;139.738;2023-07-31T11:38:47;22.48;;;20.50;;
9413;SDS011;4746;35.664;139.738;2023-07-31T11:41:15;8.63;;;7.82;;
9413;SDS011;4746;35.664;139.738;2023-07-31T11:43:43;6.30;;;3.38;;
9413;SDS011;4746;35.664;139.738;2023-07-31T11:46:13;8.15;;;7.40;;
9413;SDS011;4746;35.664;139.738;2023-07-31T11:48:41;5.50;;;3.30;;
9413;SDS011;4746;35.664;139.738;2023-07-31T11:51:09;4.18;;;2.78;;
9413;SDS011;4746;35.664;139.738;2023-07-31T11:53:47;4.40;;;2.38;;
9413;SDS011;4746;35.664;139.738;2023-07-31T11:56:21;4.85;;;2.13;;
9413;SDS011;4746;35.664;139.738;2023-07-31T11:58:55;4.47;;;1.58;;
9413;SDS011;4746;35.664;139.738;2023-07-31T12:01:28;2.65;;;1.20;;
9413;SDS011;4746;35.664;139.738;2023-07-31T12:03:57;2.28;;;1.33;;
9413;SDS011;4746;35.664;139.738;2023-07-31T12:06:34;2.60;;;1.50;;
9413;SDS011;4746;35.664;139.738;2023-07-31T12:09:03;4.72;;;1.50;;
9413;SDS011;4746;35.664;139.738;2023-07-31T12:11:42;3.67;;;1.42;;
9413;SDS011;4746;35.664;139.738;2023-07-31T12:14:21;2.70;;;1.15;;
9413;SDS011;4746;35.664;139.738;2023-07-31T12:17:00;4.05;;;1.65;;
9413;SDS011;4746;35.664;139.738;2023-07-31T12:19:32;4.28;;;1.33;;
9413;SDS011;4746;35.664;139.738;2023-07-31T12:22:00;5.80;;;1.40;;
9413;SDS011;4746;35.664;139.738;2023-07-31T12:24:36;4.03;;;1.42;;
9413;SDS011;4746;35.664;139.738;2023-07-31T12:27:10;3.70;;;1.02;;
9413;SDS011;4746;35.664;139.738;2023-07-31T12:29:43;2.08;;;1.20;;
9413;SDS011;4746;35.664;139.738;2023-07-31T12:32:24;4.30;;;1.35;;
9413;SDS011;4746;35.664;139.738;2023-07-31T12:34:54;3.10;;;1.05;;
9413;SDS011;4746;35.664;139.738;2023-07-31T12:37:25;3.30;;;1.45;;
9413;SDS011;4746;35.664;139.738;2023-07-31T12:39:53;4.50;;;1.27;;
9413;SDS011;4746;35.664;139.738;2023-07-31T12:42:20;2.88;;;1.23;;
9413;SDS011;4746;35.664;139.738;2023-07-31T12:44:50;2.75;;;1.17;;
9413;SDS011;4746;35.664;139.738;2023-07-31T12:47:17;7.32;;;1.17;;
9413;SDS011;4746;35.664;139.738;2023-07-31T12:49:46;3.15;;;1.13;;
9413;SDS011;4746;35.664;139.738;2023-07-31T12:52:15;6.20;;;1.75;;
9413;SDS011;4746;35.664;139.738;2023-07-31T12:54:42;5.05;;;1.30;;
9413;SDS011;4746;35.664;139.738;2023-07-31T12:57:12;3.22;;;1.40;;
9413;SDS011;4746;35.664;139.738;2023-07-31T12:59:39;3.72;;;1.48;;
9413;SDS011;4746;35.664;139.738;2023-07-31T13:02:07;4.07;;;1.35;;
9413;SDS011;4746;35.664;139.738;2023-07-31T13:04:34;2.08;;;1.00;;
9413;SDS011;4746;35.664;139.738;2023-07-31T13:07:02;2.97;;;1.40;;
9413;SDS011;4746;35.664;139.738;2023-07-31T13:09:30;3.63;;;1.40;;
9413;SDS011;4746;35.664;139.738;2023-07-31T13:11:57;3.30;;;1.10;;
9413;SDS011;4746;35.664;139.738;2023-07-31T13:14:25;2.15;;;1.13;;
9413;SDS011;4746;35.664;139.738;2023-07-31T13:16:52;5.18;;;1.45;;
9413;SDS011;4746;35.664;139.738;2023-07-31T13:19:20;2.95;;;1.10;;
9413;SDS011;4746;35.664;139.738;2023-07-31T13:21:48;3.40;;;1.30;;
9413;SDS011;4746;35.664;139.738;2023-07-31T13:24:18;3.83;;;1.40;;
9413;SDS011;4746;35.664;139.738;2023-07-31T13:26:45;4.32;;;1.50;;
9413;SDS011;4746;35.664;139.738;2023-07-31T13:29:13;4.90;;;1.20;;
9413;SDS011;4746;35.664;139.738;2023-07-31T13:31:40;3.38;;;1.15;;
9413;SDS011;4746;35.664;139.738;2023-07-31T13:34:08;3.05;;;1.30;;
9413;SDS011;4746;35.664;139.738;2023-07-31T13:36:35;3.03;;;0.93;;
9413;SDS011;4746;35.664;139.738;2023-07-31T13:39:03;2.70;;;1.17;;
9413;SDS011;4746;35.664;139.738;2023-07-31T13:41:30;5.88;;;1.38;;
9413;SDS011;4746;35.664;139.738;2023-07-31T13:43:58;4.22;;;1.35;;
9413;SDS011;4746;35.664;139.738;2023-07-31T13:46:25;3.38;;;1.10;;
9413;SDS011;4746;35.664;139.738;2023-07-31T13:48:53;4.22;;;1.48;;
9413;SDS011;4746;35.664;139.738;2023-07-31T13:51:21;4.82;;;1.20;;
9413;SDS011;4746;35.664;139.738;2023-07-31T13:53:49;4.38;;;1.50;;
9413;SDS011;4746;35.664;139.738;2023-07-31T13:56:17;2.38;;;1.15;;
9413;SDS011;4746;35.664;139.738;2023-07-31T13:58:45;4.07;;;1.20;;
9413;SDS011;4746;35.664;139.738;2023-07-31T14:01:13;3.78;;;1.27;;
9413;SDS011;4746;35.664;139.738;2023-07-31T14:03:40;2.00;;;0.88;;
9413;SDS011;4746;35.664;139.738;2023-07-31T14:06:10;3.42;;;1.45;;
9413;SDS011;4746;35.664;139.738;2023-07-31T14:08:38;1.95;;;1.08;;
9413;SDS011;4746;35.664;139.738;2023-07-31T14:11:05;3.92;;;1.35;;
9413;SDS011;4746;35.664;139.738;2023-07-31T14:13:32;2.78;;;1.15;;
9413;SDS011;4746;35.664;139.738;2023-07-31T14:16:00;4.43;;;1.15;;
9413;SDS011;4746;35.664;139.738;2023-07-31T14:18:28;3.67;;;1.20;;
9413;SDS011;4746;35.664;139.738;2023-07-31T14:20:55;3.10;;;1.48;;
9413;SDS011;4746;35.664;139.738;2023-07-31T14:23:23;3.47;;;1.10;;
9413;SDS011;4746;35.664;139.738;2023-07-31T14:25:52;4.22;;;1.42;;
9413;SDS011;4746;35.664;139.738;2023-07-31T14:28:19;3.72;;;1.20;;
9413;SDS011;4746;35.664;139.738;2023-07-31T14:30:46;3.10;;;1.25;;
9413;SDS011;4746;35.664;139.738;2023-07-31T14:33:16;3.47;;;1.33;;
9413;SDS011;4746;35.664;139.738;2023-07-31T14:35:44;4.60;;;1.50;;
9413;SDS011;4746;35.664;139.738;2023-07-31T14:38:11;3.65;;;1.25;;
9413;SDS011;4746;35.664;139.738;2023-07-31T14:40:39;2.42;;;1.20;;
9413;SDS011;4746;35.664;139.738;2023-07-31T14:43:09;2.90;;;1.15;;
9413;SDS011;4746;35.664;139.738;2023-07-31T14:45:36;4.10;;;1.58;;
9413;SDS011;4746;35.664;139.738;2023-07-31T14:48:04;3.17;;;1.38;;
9413;SDS011;4746;35.664;139.738;2023-07-31T14:50:31;5.22;;;1.38;;
9413;SDS011;4746;35.664;139.738;2023-07-31T14:52:59;4.43;;;1.70;;
9413;SDS011;4746;35.664;139.738;2023-07-31T14:55:27;2.75;;;1.27;;
9413;SDS011;4746;35.664;139.738;2023-07-31T14:57:54;4.20;;;1.60;;
9413;SDS011;4746;35.664;139.738;2023-07-31T15:00:21;3.00;;;1.38;;
9413;SDS011;4746;35.664;139.738;2023-07-31T15:02:50;6.05;;;1.38;;